Terminal Aerodrome Forecast
Issued by NWS

Home | Current Version | Previous Version | Graphics & Text | Print | Product List | Glossary On
Versions: 1 2 3 4 5 6 7 8 9 10 11 12 13 14 15 16 17 18 19 20 21
000
FTUS43 KOAX 181700
TAFCDR
TAF
KCDR 181726Z 1818/1918 22019G30KT P6SM SCT070 OVC250
     FM190200 21018G26KT P6SM VCTS BKN100CB
     FM190800 06011KT P6SM OVC100=

USA.gov is the U.S. government's official web portal to all federal, state and local government web resources and services.